createdAt,value
2022-11-07T00:00:26.125Z,48.83
2022-11-07T00:03:28.941Z,48.93
2022-11-07T00:06:31.734Z,48.76
2022-11-07T00:09:35.873Z,48.84
2022-11-07T00:12:38.642Z,48.77
2022-11-07T00:15:41.407Z,48.85
2022-11-07T00:18:44.253Z,48.90
2022-11-07T00:21:47.061Z,48.84
2022-11-07T00:24:51.135Z,48.91
2022-11-07T00:27:53.911Z,48.93
2022-11-07T00:30:59.210Z,48.70
2022-11-07T00:34:02.014Z,48.86
2022-11-07T00:37:04.829Z,49.00
2022-11-07T00:40:10.394Z,48.88
2022-11-07T00:43:13.413Z,49.09
2022-11-07T00:46:17.007Z,49.01
2022-11-07T00:49:19.772Z,48.97
2022-11-07T00:52:23.581Z,49.08
2022-11-07T00:55:27.704Z,49.07
2022-11-07T00:58:30.665Z,49.06
2022-11-07T01:01:34.321Z,49.14
2022-11-07T01:04:55.306Z,48.98
2022-11-07T01:07:58.097Z,49.08
2022-11-07T01:11:05.498Z,48.96
2022-11-07T01:14:09.355Z,49.01
2022-11-07T01:17:12.103Z,49.07
2022-11-07T01:20:14.860Z,49.03
2022-11-07T01:23:18.428Z,49.03
2022-11-07T01:26:22.729Z,49.20
2022-11-07T01:29:25.532Z,49.05
2022-11-07T01:32:28.397Z,49.04
2022-11-07T01:35:31.146Z,48.91
2022-11-07T01:38:33.975Z,49.03
2022-11-07T01:41:38.794Z,49.08
2022-11-07T01:44:55.962Z,49.06
2022-11-07T01:48:01.129Z,49.08
2022-11-07T01:51:04.126Z,49.05
2022-11-07T01:54:07.923Z,48.92
2022-11-07T01:57:15.377Z,48.97
2022-11-07T02:00:20.900Z,49.06
2022-11-07T02:03:24.344Z,48.86
2022-11-07T02:06:30.760Z,48.67
2022-11-07T02:09:33.553Z,48.33
2022-11-07T02:12:37.914Z,48.16
2022-11-07T02:15:40.660Z,48.04
2022-11-07T02:18:45.425Z,47.90
2022-11-07T02:21:50.439Z,47.85
2022-11-07T02:24:56.314Z,47.69
2022-11-07T02:28:00.838Z,47.73
2022-11-07T02:31:03.602Z,47.46
2022-11-07T02:34:06.445Z,47.54
2022-11-07T02:37:14.553Z,47.45
2022-11-07T02:40:19.459Z,47.50
2022-11-07T02:43:24.031Z,47.39
2022-11-07T02:46:27.472Z,47.28
2022-11-07T02:49:30.289Z,47.18
2022-11-07T02:52:33.062Z,47.24
2022-11-07T02:55:37.245Z,47.14
2022-11-07T02:58:40.287Z,47.07
2022-11-07T03:01:43.131Z,47.00
2022-11-07T03:04:49.140Z,47.05
2022-11-07T03:07:52.137Z,47.03
2022-11-07T03:10:56.320Z,47.19
2022-11-07T03:13:59.151Z,47.34
2022-11-07T03:17:01.921Z,47.43
2022-11-07T03:20:05.142Z,47.37
2022-11-07T03:23:08.154Z,47.61
2022-11-07T03:26:12.253Z,47.84
2022-11-07T03:29:15.027Z,47.85
2022-11-07T03:32:17.769Z,47.78
2022-11-07T03:35:20.599Z,47.99
2022-11-07T03:38:23.347Z,48.01
2022-11-07T03:41:27.531Z,48.27
2022-11-07T03:44:30.275Z,48.12
2022-11-07T03:47:34.379Z,48.20
2022-11-07T03:50:37.160Z,48.13
2022-11-07T03:53:39.969Z,48.01
2022-11-07T03:56:44.031Z,48.31
2022-11-07T03:59:46.769Z,48.30
2022-11-07T04:02:49.647Z,48.33
2022-11-07T04:05:52.594Z,48.41
2022-11-07T04:08:55.321Z,48.44
2022-11-07T04:12:17.381Z,48.38
2022-11-07T04:15:38.019Z,48.43
2022-11-07T04:18:40.817Z,48.31
2022-11-07T04:21:43.547Z,48.45
2022-11-07T04:24:46.563Z,48.45
2022-11-07T04:27:49.887Z,48.34
2022-11-07T04:30:52.621Z,48.48
2022-11-07T04:33:55.424Z,48.51
2022-11-07T04:36:58.208Z,48.47
2022-11-07T04:40:00.927Z,48.59
2022-11-07T04:43:09.349Z,48.53
2022-11-07T04:46:12.180Z,48.69
2022-11-07T04:49:15.320Z,48.53
2022-11-07T04:52:18.109Z,48.62
2022-11-07T04:55:21.825Z,48.75
2022-11-07T04:58:25.948Z,48.76
2022-11-07T05:01:28.778Z,48.67
2022-11-07T05:04:31.582Z,48.71
2022-11-07T05:07:34.383Z,48.74
2022-11-07T05:10:37.121Z,48.75
2022-11-07T05:13:41.226Z,48.84
2022-11-07T05:16:44.418Z,48.69
2022-11-07T05:19:47.945Z,48.70
2022-11-07T05:23:08.175Z,48.71
2022-11-07T05:26:10.987Z,48.81
2022-11-07T05:29:15.134Z,48.70
2022-11-07T05:32:18.205Z,48.72
2022-11-07T05:35:20.967Z,48.73
2022-11-07T05:38:23.768Z,48.61
2022-11-07T05:41:26.535Z,48.79
2022-11-07T05:44:31.067Z,48.78
2022-11-07T05:47:33.847Z,48.80
2022-11-07T05:50:37.551Z,48.74
2022-11-07T05:53:40.368Z,48.81
2022-11-07T05:56:44.095Z,48.78
2022-11-07T05:59:48.222Z,48.69
2022-11-07T06:02:55.486Z,48.75
2022-11-07T06:05:58.640Z,48.71
2022-11-07T06:09:01.437Z,48.74
2022-11-07T06:12:04.950Z,48.75
2022-11-07T06:15:09.682Z,48.88
2022-11-07T06:18:13.937Z,48.83
2022-11-07T06:21:17.124Z,48.75
2022-11-07T06:24:20.211Z,48.82
2022-11-07T06:27:23.246Z,48.86
2022-11-07T06:30:27.383Z,48.92
2022-11-07T06:33:31.025Z,48.96
2022-11-07T06:36:33.803Z,48.96
2022-11-07T06:39:36.585Z,49.11
2022-11-07T06:42:39.562Z,49.02
2022-11-07T06:45:44.192Z,48.92
2022-11-07T06:48:47.277Z,49.05
2022-11-07T06:51:50.149Z,48.85
2022-11-07T06:54:52.928Z,48.94
2022-11-07T06:57:58.646Z,49.05
2022-11-07T07:01:03.693Z,48.90
2022-11-07T07:04:06.702Z,48.82
2022-11-07T07:07:09.457Z,49.04
2022-11-07T07:10:12.271Z,48.94
2022-11-07T07:13:15.536Z,48.91
2022-11-07T07:16:19.905Z,48.85
2022-11-07T07:19:22.627Z,49.00
2022-11-07T07:22:25.450Z,48.91
2022-11-07T07:25:28.318Z,48.94
2022-11-07T07:28:31.357Z,48.98
2022-11-07T07:31:35.495Z,48.80
2022-11-07T07:34:38.223Z,48.92
2022-11-07T07:37:41.015Z,48.90
2022-11-07T07:40:43.794Z,48.89
2022-11-07T07:43:46.717Z,48.81
2022-11-07T07:46:50.849Z,48.95
2022-11-07T07:49:53.581Z,48.95
2022-11-07T07:52:57.341Z,48.78
2022-11-07T07:56:00.682Z,48.67
2022-11-07T07:59:03.806Z,48.79
2022-11-07T08:02:10.307Z,48.79
2022-11-07T08:05:13.495Z,48.86
2022-11-07T08:08:16.359Z,48.84
2022-11-07T08:11:19.147Z,48.68
2022-11-07T08:14:21.917Z,48.83
2022-11-07T08:17:26.096Z,48.68
2022-11-07T08:20:29.241Z,48.72
2022-11-07T08:23:32.522Z,48.66
2022-11-07T08:26:35.356Z,48.68
2022-11-07T08:29:38.121Z,48.84
2022-11-07T08:32:42.255Z,48.68
2022-11-07T08:35:45.027Z,48.71
2022-11-07T08:38:47.881Z,48.72
2022-11-07T08:41:50.705Z,48.82
2022-11-07T08:44:53.490Z,48.69
2022-11-07T08:48:01.120Z,48.63
2022-11-07T08:51:04.060Z,48.81
2022-11-07T08:54:06.968Z,48.67
2022-11-07T08:57:10.643Z,48.78
2022-11-07T09:00:14.025Z,48.72
2022-11-07T09:03:43.511Z,48.77
2022-11-07T09:06:40.851Z,48.63
2022-11-07T09:09:43.619Z,48.77
2022-11-07T09:12:46.835Z,48.68
2022-11-07T09:15:51.820Z,48.69
2022-11-07T09:18:56.403Z,48.75
2022-11-07T09:21:59.193Z,48.60
2022-11-07T09:25:01.950Z,48.51
2022-11-07T09:28:04.963Z,48.64
2022-11-07T09:31:07.738Z,48.60
2022-11-07T09:34:11.928Z,48.67
2022-11-07T09:37:14.635Z,48.68
2022-11-07T09:40:24.543Z,48.63
2022-11-07T09:43:39.952Z,48.60
2022-11-07T09:46:52.347Z,48.59
2022-11-07T09:49:59.269Z,48.51
2022-11-07T09:53:05.126Z,48.46
2022-11-07T09:56:08.993Z,48.16
2022-11-07T09:59:18.369Z,47.81
2022-11-07T10:02:22.863Z,47.87
2022-11-07T10:05:31.918Z,47.58
2022-11-07T10:08:39.632Z,47.39
2022-11-07T10:11:45.269Z,47.31
2022-11-07T10:14:54.342Z,47.05
2022-11-07T10:21:37.749Z,47.09
2022-11-07T10:24:48.495Z,47.11
2022-11-07T10:27:55.171Z,46.93
2022-11-07T10:31:00.091Z,46.40
2022-11-07T10:34:04.166Z,47.20
2022-11-07T10:37:10.145Z,47.54
2022-11-07T10:40:15.887Z,47.49
2022-11-07T10:43:23.897Z,47.19
2022-11-07T10:46:28.649Z,47.25
2022-11-07T10:50:07.668Z,46.97
2022-11-07T10:53:19.749Z,46.95
2022-11-07T10:56:22.495Z,47.13
2022-11-07T10:59:30.218Z,47.19
2022-11-07T11:02:44.198Z,46.81
2022-11-07T11:05:47.328Z,47.02
2022-11-07T11:08:52.348Z,46.96
2022-11-07T11:11:55.108Z,47.13
2022-11-07T11:15:04.657Z,47.10
2022-11-07T11:18:08.224Z,47.20
2022-11-07T11:21:11.057Z,47.12
2022-11-07T11:24:17.261Z,47.01
2022-11-07T11:27:21.525Z,47.06
2022-11-07T11:30:25.062Z,45.54
2022-11-07T11:33:32.955Z,45.70
2022-11-07T11:36:39.922Z,46.19
2022-11-07T11:39:46.350Z,45.70
2022-11-07T11:42:53.833Z,46.50
2022-11-07T11:46:04.880Z,46.90
2022-11-07T11:49:12.949Z,46.66
2022-11-07T11:52:16.891Z,46.72
2022-11-07T11:55:22.581Z,46.71
2022-11-07T11:58:33.425Z,46.21
2022-11-07T12:01:40.045Z,46.08
2022-11-07T12:04:48.290Z,45.69
2022-11-07T12:07:56.448Z,45.87
2022-11-07T12:11:04.473Z,46.38
2022-11-07T12:14:13.452Z,45.72
2022-11-07T12:17:24.809Z,46.16
2022-11-07T12:20:29.978Z,46.93
2022-11-07T12:23:43.424Z,46.01
2022-11-07T12:26:51.486Z,46.15
2022-11-07T12:30:14.914Z,46.44
2022-11-07T12:33:25.096Z,47.05
2022-11-07T12:36:39.663Z,46.08
2022-11-07T12:39:47.892Z,45.95
2022-11-07T12:43:00.027Z,46.03
2022-11-07T12:46:08.572Z,45.96
2022-11-07T12:49:20.386Z,46.09
2022-11-07T12:52:41.048Z,46.36
2022-11-07T12:55:45.640Z,46.60
2022-11-07T12:58:49.782Z,46.47
2022-11-07T13:01:56.555Z,46.40
2022-11-07T13:05:01.800Z,46.77
2022-11-07T13:08:08.800Z,46.94
2022-11-07T13:11:17.806Z,46.98
2022-11-07T13:14:30.148Z,46.98
2022-11-07T13:17:40.337Z,47.01
2022-11-07T13:20:45.941Z,46.99
2022-11-07T13:23:49.122Z,47.30
2022-11-07T13:26:51.857Z,47.55
2022-11-07T13:29:56.057Z,47.44
2022-11-07T13:32:59.881Z,47.49
2022-11-07T13:36:13.348Z,47.62
2022-11-07T13:39:16.803Z,47.70
2022-11-07T13:42:20.386Z,47.37
2022-11-07T13:45:27.867Z,47.92
2022-11-07T13:48:31.935Z,47.91
2022-11-07T13:51:36.436Z,49.40
2022-11-07T13:54:41.187Z,49.95
2022-11-07T13:57:47.054Z,49.20
2022-11-07T14:00:51.341Z,49.30
2022-11-07T14:03:54.186Z,49.83
2022-11-07T14:06:58.392Z,49.76
2022-11-07T14:10:01.534Z,49.55
2022-11-07T14:13:07.464Z,51.71
2022-11-07T14:16:18.768Z,52.36
2022-11-07T14:19:26.619Z,51.02
2022-11-07T14:22:35.307Z,52.61
2022-11-07T14:25:38.101Z,51.12
2022-11-07T14:28:40.972Z,53.11
2022-11-07T14:31:46.339Z,53.41
2022-11-07T14:34:49.931Z,52.63
2022-11-07T14:37:52.718Z,52.58
2022-11-07T14:40:57.154Z,53.45
2022-11-07T14:44:03.125Z,52.15
2022-11-07T14:47:08.588Z,52.96
2022-11-07T14:50:15.290Z,52.29
2022-11-07T14:53:20.130Z,52.91
2022-11-07T14:56:25.675Z,52.73
2022-11-07T14:59:33.441Z,52.31
2022-11-07T15:02:37.676Z,52.42
2022-11-07T15:05:45.258Z,52.51
2022-11-07T15:08:56.246Z,52.06
2022-11-07T15:11:59.830Z,52.33
2022-11-07T15:15:03.665Z,51.64
2022-11-07T15:18:08.154Z,51.21
2022-11-07T15:21:28.391Z,51.55
2022-11-07T15:24:36.450Z,51.28
2022-11-07T15:27:40.373Z,52.36
2022-11-07T15:30:44.699Z,51.42
2022-11-07T15:33:49.142Z,51.12
2022-11-07T15:36:51.929Z,51.23
2022-11-07T15:39:55.171Z,51.83
2022-11-07T15:42:58.931Z,51.77
2022-11-07T15:46:03.245Z,51.52
2022-11-07T15:49:08.203Z,50.35
2022-11-07T15:52:11.067Z,53.53
2022-11-07T15:55:14.489Z,51.19
2022-11-07T15:58:18.794Z,51.34
2022-11-07T16:01:21.890Z,53.75
2022-11-07T16:04:26.127Z,54.09
2022-11-07T16:07:28.941Z,54.71
2022-11-07T16:10:31.715Z,53.65
2022-11-07T16:13:34.497Z,53.59
2022-11-07T16:16:38.016Z,53.53
2022-11-07T16:19:42.129Z,52.78
2022-11-07T16:22:45.373Z,52.46
2022-11-07T16:25:50.663Z,52.62
2022-11-07T16:28:53.476Z,52.39
2022-11-07T16:31:56.206Z,52.69
2022-11-07T16:35:00.380Z,52.72
2022-11-07T16:38:03.203Z,52.57
2022-11-07T16:41:06.074Z,52.53
2022-11-07T16:44:08.940Z,52.58
2022-11-07T16:47:14.098Z,52.53
2022-11-07T16:50:18.709Z,52.06
2022-11-07T16:53:21.567Z,52.67
2022-11-07T16:56:25.714Z,51.20
2022-11-07T16:59:28.850Z,51.53
2022-11-07T17:02:31.680Z,52.33
2022-11-07T17:05:35.932Z,53.34
2022-11-07T17:08:39.711Z,53.41
2022-11-07T17:11:42.602Z,53.05
2022-11-07T17:14:45.398Z,53.57
2022-11-07T17:17:48.279Z,53.46
2022-11-07T17:20:53.454Z,53.04
2022-11-07T17:23:56.916Z,51.91
2022-11-07T17:26:59.748Z,53.70
2022-11-07T17:30:08.153Z,53.44
2022-11-07T17:33:11.343Z,52.93
2022-11-07T17:36:25.827Z,53.02
2022-11-07T17:39:28.609Z,52.58
2022-11-07T17:42:37.577Z,53.93
2022-11-07T17:45:41.217Z,53.13
2022-11-07T17:48:47.238Z,51.73
2022-11-07T17:51:54.232Z,51.36
2022-11-07T17:54:57.127Z,51.08
2022-11-07T17:57:59.985Z,50.92
2022-11-07T18:01:02.736Z,50.74
2022-11-07T18:04:06.203Z,50.55
2022-11-07T18:07:10.418Z,50.68
2022-11-07T18:10:13.253Z,50.57
2022-11-07T18:13:16.053Z,50.10
2022-11-07T18:16:19.966Z,50.53
2022-11-07T18:19:23.751Z,49.87
2022-11-07T18:22:27.917Z,50.08
2022-11-07T18:25:31.121Z,49.94
2022-11-07T18:28:35.503Z,49.29
2022-11-07T18:31:39.264Z,49.14
2022-11-07T18:34:42.160Z,48.77
2022-11-07T18:37:46.365Z,47.45
2022-11-07T18:40:55.879Z,48.56
2022-11-07T18:44:04.190Z,48.77
2022-11-07T18:47:07.696Z,48.04
2022-11-07T18:50:11.303Z,48.29
2022-11-07T18:53:15.448Z,48.10
2022-11-07T18:56:18.300Z,46.92
2022-11-07T18:59:21.090Z,47.56
2022-11-07T19:02:24.038Z,47.10
2022-11-07T19:05:27.571Z,47.76
2022-11-07T19:08:32.545Z,47.27
2022-11-07T19:11:35.300Z,47.45
2022-11-07T19:14:38.076Z,47.07
2022-11-07T19:17:40.874Z,46.97
2022-11-07T19:20:43.701Z,46.97
2022-11-07T19:23:48.264Z,47.25
2022-11-07T19:26:51.093Z,46.99
2022-11-07T19:29:53.960Z,46.82
2022-11-07T19:32:56.839Z,46.63
2022-11-07T19:36:00.560Z,46.20
2022-11-07T19:39:04.966Z,47.13
2022-11-07T19:42:07.689Z,46.42
2022-11-07T19:45:10.875Z,46.82
2022-11-07T19:48:14.394Z,46.26
2022-11-07T19:51:22.072Z,46.21
2022-11-07T19:54:26.971Z,46.48
2022-11-07T19:57:29.719Z,45.98
2022-11-07T20:00:32.580Z,45.50
2022-11-07T20:03:35.433Z,46.09
2022-11-07T20:06:39.113Z,45.96
2022-11-07T20:09:43.237Z,45.36
2022-11-07T20:12:46.013Z,45.50
2022-11-07T20:15:48.724Z,45.25
2022-11-07T20:18:51.480Z,45.47
2022-11-07T20:21:54.383Z,46.17
2022-11-07T20:24:59.853Z,44.88
2022-11-07T20:28:02.593Z,44.36
2022-11-07T20:31:07.665Z,45.71
2022-11-07T20:34:13.152Z,44.67
2022-11-07T20:37:20.967Z,45.15
2022-11-07T20:40:29.205Z,44.92
2022-11-07T20:43:33.986Z,44.60
2022-11-07T20:46:38.017Z,45.66
2022-11-07T20:49:42.131Z,46.03
2022-11-07T20:52:44.957Z,45.66
2022-11-07T20:55:49.131Z,46.69
2022-11-07T20:58:52.371Z,46.57
2022-11-07T21:02:00.191Z,45.76
2022-11-07T21:05:21.405Z,45.98
2022-11-07T21:08:24.145Z,46.02
2022-11-07T21:11:29.713Z,46.40
2022-11-07T21:14:32.529Z,46.03
2022-11-07T21:17:35.294Z,45.87
2022-11-07T21:20:38.191Z,45.87
2022-11-07T21:23:41.034Z,46.26
2022-11-07T21:26:45.492Z,45.88
2022-11-07T21:29:48.324Z,45.78
2022-11-07T21:32:51.106Z,45.70
2022-11-07T21:35:53.897Z,45.26
2022-11-07T21:38:57.134Z,46.29
2022-11-07T21:42:01.327Z,46.74
2022-11-07T21:45:04.113Z,46.55
2022-11-07T21:48:07.063Z,47.03
2022-11-07T21:51:11.567Z,46.58
2022-11-07T21:54:14.397Z,46.46
2022-11-07T21:57:18.557Z,47.22
2022-11-07T22:00:21.312Z,46.71
2022-11-07T22:03:51.149Z,47.09
2022-11-07T22:06:47.238Z,47.05
2022-11-07T22:09:50.039Z,47.08
2022-11-07T22:12:54.187Z,46.85
2022-11-07T22:16:02.757Z,47.00
2022-11-07T22:19:11.239Z,46.97
2022-11-07T22:22:15.311Z,47.47
2022-11-07T22:25:18.225Z,46.90
2022-11-07T22:28:22.342Z,47.32
2022-11-07T22:31:25.939Z,47.47
2022-11-07T22:34:28.753Z,47.42
2022-11-07T22:37:31.803Z,47.16
2022-11-07T22:40:34.592Z,47.34
2022-11-07T22:43:39.252Z,47.32
2022-11-07T22:46:42.680Z,47.30
2022-11-07T22:49:45.421Z,47.15
2022-11-07T22:52:48.208Z,47.19
2022-11-07T22:55:50.967Z,47.29
2022-11-07T22:58:55.432Z,47.66
2022-11-07T23:01:58.263Z,47.60
2022-11-07T23:05:01.084Z,47.78
2022-11-07T23:08:03.880Z,47.80
2022-11-07T23:11:40.508Z,47.92
2022-11-07T23:14:31.925Z,47.95
2022-11-07T23:17:34.780Z,47.91
2022-11-07T23:20:55.275Z,48.09
2022-11-07T23:23:59.258Z,48.02
2022-11-07T23:27:02.421Z,48.54
2022-11-07T23:30:07.342Z,48.12
2022-11-07T23:33:10.103Z,48.03
2022-11-07T23:36:14.178Z,48.36
2022-11-07T23:39:18.237Z,47.74
2022-11-07T23:42:21.000Z,47.11
2022-11-07T23:45:42.930Z,47.35
2022-11-07T23:49:03.370Z,46.41
2022-11-07T23:52:06.361Z,46.01
2022-11-07T23:55:26.572Z,43.62
2022-11-07T23:58:47.902Z,44.81
